Terminal Aerodrome Forecast
Issued by NWS

Current Version | Previous Version | Text Only | Print | Product List | Glossary On
Versions: 1 2 3 4 5 6 7 8 9 10 11 12 13 14 15 16 17 18 19 20 21
000
FTUS43 KDLH 051700
TAFHIB
TAF
KHIB 051737Z 0518/0618 23009KT P6SM FEW030
     FM060400 20008KT P6SM SCT035 WS015/24038KT
     FM061000 24005KT P6SM BKN040
     FM061600 27008KT P6SM SCT030=

USA.gov is the U.S. government's official web portal to all federal, state and local government web resources and services.